Time;durP1;ratioP1;P1;durP2;ratioP2;P2;SDS_P1;SDS_P2;PMS_P1;PMS_P2;Temp;Humidity;BMP_temperature;BMP_pressure;BME280_temperature;BME280_humidity;BME280_pressure;Samples;Min_cycle;Max_cycle;Signal;HPM_P1;HPM_P2
2022/02/26 00:02:20;;;;;;;1.50;0.20;;;;;;;;;;5051076;28;20045;-59
2022/02/26 00:04:45;;;;;;;4.00;0.43;;;;;;;;;;5048415;28;20021;-59
2022/02/26 00:07:11;;;;;;;2.28;0.28;;;;;;;;;;5062631;28;20028;-59
2022/02/26 00:09:36;;;;;;;3.13;0.40;;;;;;;;;;5059032;28;20489;-59
2022/02/26 00:12:02;;;;;;;1.95;0.40;;;;;;;;;;5051010;28;20115;-59
2022/02/26 00:14:27;;;;;;;2.40;0.30;;;;;;;;;;5055414;28;20027;-59
2022/02/26 00:16:52;;;;;;;2.65;0.30;;;;;;;;;;5065311;28;20031;-59
2022/02/26 00:19:17;;;;;;;2.53;0.20;;;;;;;;;;5047646;28;20017;-59
2022/02/26 00:21:42;;;;;;;2.80;0.45;;;;;;;;;;5052263;28;20021;-59
2022/02/26 00:24:08;;;;;;;3.50;0.52;;;;;;;;;;5047881;28;20601;-59
2022/02/26 00:26:33;;;;;;;1.20;0.40;;;;;;;;;;5052731;28;20102;-59
2022/02/26 00:28:58;;;;;;;1.58;0.30;;;;;;;;;;5035453;28;20026;-58
2022/02/26 00:31:23;;;;;;;2.65;0.55;;;;;;;;;;5029632;28;20052;-59
2022/02/26 00:33:49;;;;;;;1.98;0.70;;;;;;;;;;5052275;28;20029;-59
2022/02/26 00:36:14;;;;;;;2.63;0.30;;;;;;;;;;5052447;28;20503;-59
2022/02/26 00:38:39;;;;;;;1.88;0.38;;;;;;;;;;5034677;28;20473;-55
2022/02/26 00:41:05;;;;;;;3.28;0.45;;;;;;;;;;5053243;28;20029;-59
2022/02/26 00:43:30;;;;;;;2.47;0.43;;;;;;;;;;5057830;28;20017;-59
2022/02/26 00:45:56;;;;;;;1.63;0.35;;;;;;;;;;5052692;28;20159;-59
2022/02/26 00:49:46;;;;;;;1.88;0.40;;;;;;;;;;5034665;28;20017;-58
2022/02/26 00:51:09;;;;;;;2.72;0.30;;;;;;;;;;5052367;28;20067;-56
2022/02/26 00:53:34;;;;;;;2.55;0.30;;;;;;;;;;5043507;28;20029;-59
2022/02/26 00:56:00;;;;;;;1.63;0.30;;;;;;;;;;5034694;28;20036;-57
2022/02/26 00:58:25;;;;;;;1.98;0.20;;;;;;;;;;5050321;28;20028;-59
2022/02/26 01:00:50;;;;;;;2.60;0.45;;;;;;;;;;5051786;28;20480;-58
2022/02/26 01:03:15;;;;;;;1.15;0.20;;;;;;;;;;5056750;28;20522;-59
2022/02/26 01:05:41;;;;;;;3.10;0.30;;;;;;;;;;5072557;28;20411;-59
2022/02/26 01:08:06;;;;;;;1.63;0.28;;;;;;;;;;5057012;28;20469;-59
2022/02/26 01:10:31;;;;;;;1.42;0.30;;;;;;;;;;5049161;28;20021;-59
2022/02/26 01:12:56;;;;;;;1.98;0.43;;;;;;;;;;5053338;28;20025;-59
2022/02/26 01:15:22;;;;;;;1.88;0.55;;;;;;;;;;5048128;28;20025;-59
2022/02/26 01:17:47;;;;;;;2.70;0.30;;;;;;;;;;5051618;28;20070;-59
2022/02/26 01:20:12;;;;;;;3.20;0.30;;;;;;;;;;5052603;28;20032;-59
2022/02/26 01:22:37;;;;;;;2.00;0.15;;;;;;;;;;5048730;28;20039;-59
2022/02/26 01:25:03;;;;;;;3.33;0.20;;;;;;;;;;5039117;28;20068;-59
2022/02/26 01:27:28;;;;;;;3.38;0.90;;;;;;;;;;5047654;28;20032;-59
2022/02/26 01:29:53;;;;;;;1.77;0.10;;;;;;;;;;5054256;28;20500;-59
2022/02/26 01:32:18;;;;;;;3.70;0.50;;;;;;;;;;5051545;28;20032;-59
2022/02/26 01:34:44;;;;;;;2.72;0.50;;;;;;;;;;5058152;28;20481;-59
2022/02/26 01:37:09;;;;;;;2.33;0.30;;;;;;;;;;5052058;28;20503;-56
2022/02/26 01:39:34;;;;;;;1.55;0.30;;;;;;;;;;5043999;28;20103;-59
2022/02/26 01:41:59;;;;;;;1.92;0.30;;;;;;;;;;5038333;28;20035;-58
2022/02/26 01:44:25;;;;;;;4.05;0.57;;;;;;;;;;5052088;28;20037;-59
2022/02/26 01:46:50;;;;;;;3.45;0.30;;;;;;;;;;5034141;28;20025;-58
2022/02/26 01:49:15;;;;;;;2.15;0.30;;;;;;;;;;5059091;28;20040;-59
2022/02/26 01:51:41;;;;;;;1.75;0.40;;;;;;;;;;5054713;28;20032;-59
2022/02/26 01:54:06;;;;;;;1.38;0.40;;;;;;;;;;5053616;28;20045;-59
2022/02/26 01:56:32;;;;;;;2.88;0.40;;;;;;;;;;5033524;28;20016;-59
2022/02/26 01:58:57;;;;;;;4.43;0.30;;;;;;;;;;5045018;28;20021;-59
2022/02/26 02:01:22;;;;;;;1.50;0.22;;;;;;;;;;5049067;28;20535;-59
2022/02/26 02:03:48;;;;;;;1.20;0.30;;;;;;;;;;5038129;28;20056;-59
2022/02/26 02:06:14;;;;;;;1.92;0.30;;;;;;;;;;5055506;28;20113;-59
2022/02/26 02:08:40;;;;;;;1.85;0.30;;;;;;;;;;5058871;28;20409;-56
2022/02/26 02:11:06;;;;;;;2.00;0.30;;;;;;;;;;5067540;28;20025;-59
2022/02/26 02:13:32;;;;;;;4.18;0.68;;;;;;;;;;5060364;28;20035;-58
2022/02/26 02:15:57;;;;;;;2.85;0.25;;;;;;;;;;5075252;28;20025;-59
2022/02/26 02:18:23;;;;;;;2.88;0.40;;;;;;;;;;5058082;28;20104;-57
2022/02/26 02:20:48;;;;;;;2.05;0.30;;;;;;;;;;5066367;28;20048;-59
2022/02/26 02:23:13;;;;;;;3.13;0.57;;;;;;;;;;5051983;28;20131;-59
2022/02/26 02:25:39;;;;;;;1.85;0.40;;;;;;;;;;5044516;28;20025;-59
2022/02/26 02:28:05;;;;;;;2.15;0.40;;;;;;;;;;5060882;28;20027;-59
2022/02/26 02:30:30;;;;;;;2.22;0.40;;;;;;;;;;5061937;28;20016;-59
2022/02/26 02:32:56;;;;;;;1.65;0.30;;;;;;;;;;5058448;28;20473;-59
2022/02/26 02:35:26;;;;;;;1.40;0.20;;;;;;;;;;5054830;28;20071;-59
2022/02/26 02:37:51;;;;;;;2.35;0.32;;;;;;;;;;5055884;28;20075;-59
2022/02/26 02:40:16;;;;;;;2.28;0.40;;;;;;;;;;5050101;28;20427;-59
2022/02/26 02:42:41;;;;;;;1.73;0.30;;;;;;;;;;5020585;28;20033;-58
2022/02/26 02:45:07;;;;;;;3.38;0.50;;;;;;;;;;5067052;28;20036;-59
2022/02/26 02:47:32;;;;;;;2.97;0.35;;;;;;;;;;5066136;28;20086;-57
2022/02/26 02:49:57;;;;;;;2.10;0.60;;;;;;;;;;5054252;28;20116;-59
2022/02/26 02:52:22;;;;;;;4.13;0.75;;;;;;;;;;5053212;28;20060;-57
2022/02/26 02:54:47;;;;;;;2.30;0.43;;;;;;;;;;5053579;28;20112;-59
2022/02/26 02:57:13;;;;;;;3.23;0.50;;;;;;;;;;5070160;28;20021;-58
2022/02/26 02:59:38;;;;;;;2.00;0.50;;;;;;;;;;5067770;28;20271;-60
2022/02/26 03:02:03;;;;;;;2.05;0.20;;;;;;;;;;5066607;28;20069;-59
2022/02/26 03:04:28;;;;;;;2.67;0.30;;;;;;;;;;5059973;28;20458;-59
2022/02/26 03:06:53;;;;;;;2.67;0.45;;;;;;;;;;5069595;28;20040;-59
2022/02/26 03:09:19;;;;;;;2.90;0.45;;;;;;;;;;5066113;28;20032;-58
2022/02/26 03:11:44;;;;;;;3.17;0.35;;;;;;;;;;5047855;28;20029;-59
2022/02/26 03:14:09;;;;;;;3.28;0.30;;;;;;;;;;5066229;28;20048;-58
2022/02/26 03:16:34;;;;;;;3.42;0.55;;;;;;;;;;5053521;28;20151;-59
2022/02/26 03:18:59;;;;;;;1.42;0.20;;;;;;;;;;5053709;28;20055;-59
2022/02/26 03:21:25;;;;;;;2.55;0.50;;;;;;;;;;5055892;28;20045;-59
2022/02/26 03:23:50;;;;;;;1.80;0.30;;;;;;;;;;5054686;28;20499;-59
2022/02/26 03:26:15;;;;;;;3.17;0.30;;;;;;;;;;5047272;28;20508;-59
2022/02/26 03:28:40;;;;;;;3.58;0.30;;;;;;;;;;5053469;28;20280;-59
2022/02/26 03:31:05;;;;;;;2.30;0.60;;;;;;;;;;5073228;28;20029;-59
2022/02/26 03:33:30;;;;;;;4.20;0.40;;;;;;;;;;5020727;28;20382;-60
2022/02/26 03:35:56;;;;;;;2.28;0.63;;;;;;;;;;5038760;28;20028;-59
2022/02/26 03:38:21;;;;;;;2.40;0.30;;;;;;;;;;5055415;28;20120;-52
2022/02/26 03:40:46;;;;;;;0.82;0.10;;;;;;;;;;5064385;28;20039;-59
2022/02/26 03:43:12;;;;;;;4.80;0.63;;;;;;;;;;5062268;28;20016;-58
2022/02/26 03:45:37;;;;;;;2.50;0.40;;;;;;;;;;5053975;28;20104;-59
2022/02/26 03:48:02;;;;;;;2.47;0.45;;;;;;;;;;5054986;28;20068;-59
2022/02/26 03:50:28;;;;;;;2.17;0.30;;;;;;;;;;5065766;28;20025;-60
2022/02/26 03:52:53;;;;;;;2.15;0.25;;;;;;;;;;5055392;28;20389;-60
2022/02/26 03:55:18;;;;;;;1.05;0.20;;;;;;;;;;5041813;28;20242;-59
2022/02/26 03:57:43;;;;;;;1.38;0.40;;;;;;;;;;5053178;28;20021;-60
2022/02/26 04:00:09;;;;;;;3.40;0.85;;;;;;;;;;5069333;28;20036;-59
2022/02/26 04:02:34;;;;;;;1.92;0.32;;;;;;;;;;5046319;28;20052;-59
2022/02/26 04:04:59;;;;;;;2.08;0.50;;;;;;;;;;5055236;28;20100;-58
2022/02/26 04:07:25;;;;;;;2.45;0.50;;;;;;;;;;5056942;28;20032;-59
2022/02/26 04:09:50;;;;;;;3.65;0.63;;;;;;;;;;5064099;28;20029;-58
2022/02/26 04:12:17;;;;;;;2.97;0.30;;;;;;;;;;5046499;28;20407;-59
2022/02/26 04:14:42;;;;;;;2.78;0.30;;;;;;;;;;5053781;28;20031;-59
2022/02/26 04:17:08;;;;;;;2.08;0.52;;;;;;;;;;5053532;28;20104;-59
2022/02/26 04:19:33;;;;;;;3.35;0.38;;;;;;;;;;5073350;28;20027;-59
2022/02/26 04:21:58;;;;;;;2.90;0.50;;;;;;;;;;5062685;28;20028;-59
2022/02/26 04:24:25;;;;;;;3.22;0.50;;;;;;;;;;5050796;28;20020;-59
2022/02/26 04:26:51;;;;;;;4.35;0.50;;;;;;;;;;5038670;28;20022;-59
2022/02/26 04:29:16;;;;;;;4.72;0.77;;;;;;;;;;5059197;28;20104;-58
2022/02/26 04:31:41;;;;;;;3.60;0.55;;;;;;;;;;5048911;28;20029;-58
2022/02/26 04:34:06;;;;;;;4.15;0.52;;;;;;;;;;5068582;28;20037;-59
2022/02/26 04:36:32;;;;;;;1.55;0.30;;;;;;;;;;5065353;28;20028;-58
2022/02/26 04:38:57;;;;;;;2.78;0.50;;;;;;;;;;5067518;28;20043;-59
2022/02/26 04:41:22;;;;;;;2.40;0.38;;;;;;;;;;5038844;28;20112;-58
2022/02/26 04:43:47;;;;;;;3.22;0.32;;;;;;;;;;5052593;28;20461;-59
2022/02/26 04:46:13;;;;;;;3.75;0.50;;;;;;;;;;5065329;28;20035;-59
2022/02/26 04:48:38;;;;;;;2.50;0.38;;;;;;;;;;5053427;28;20508;-59
2022/02/26 04:51:06;;;;;;;1.50;0.28;;;;;;;;;;5058425;28;20032;-59
2022/02/26 04:53:31;;;;;;;3.95;0.52;;;;;;;;;;5049403;28;20019;-60
2022/02/26 04:55:56;;;;;;;3.10;0.50;;;;;;;;;;5059687;28;20032;-59
2022/02/26 04:58:21;;;;;;;1.95;0.30;;;;;;;;;;5061496;28;20028;-59
2022/02/26 05:00:47;;;;;;;2.33;0.20;;;;;;;;;;5045411;28;20484;-60
2022/02/26 05:03:12;;;;;;;3.10;0.30;;;;;;;;;;5070058;28;20057;-56
2022/02/26 05:05:37;;;;;;;3.08;0.30;;;;;;;;;;5068392;28;20056;-59
2022/02/26 05:08:02;;;;;;;2.50;0.30;;;;;;;;;;5052094;28;20033;-56
2022/02/26 05:10:30;;;;;;;3.13;0.73;;;;;;;;;;5048990;28;20025;-59
2022/02/26 05:12:55;;;;;;;3.80;0.52;;;;;;;;;;5035069;28;20083;-59
2022/02/26 05:15:20;;;;;;;2.78;0.30;;;;;;;;;;5052539;28;20111;-59
2022/02/26 05:17:45;;;;;;;4.95;0.47;;;;;;;;;;5070136;28;20044;-59
2022/02/26 05:20:12;;;;;;;3.88;0.75;;;;;;;;;;5055962;28;20036;-59
2022/02/26 05:22:37;;;;;;;3.95;0.57;;;;;;;;;;5061902;28;21932;-59
2022/02/26 05:25:03;;;;;;;1.80;0.22;;;;;;;;;;5053059;28;20102;-58
2022/02/26 05:27:29;;;;;;;2.85;0.35;;;;;;;;;;5047639;28;20371;-59
2022/02/26 05:29:54;;;;;;;3.65;0.57;;;;;;;;;;5039473;28;20032;-59
2022/02/26 05:32:19;;;;;;;3.35;0.20;;;;;;;;;;5062530;28;20039;-59
2022/02/26 05:34:44;;;;;;;3.00;0.45;;;;;;;;;;5054971;28;20489;-59
2022/02/26 05:37:09;;;;;;;2.58;0.50;;;;;;;;;;5052968;28;20106;-59
2022/02/26 05:39:34;;;;;;;3.70;0.43;;;;;;;;;;5051231;28;20029;-59
2022/02/26 05:42:00;;;;;;;4.85;0.50;;;;;;;;;;5049497;28;20463;-59
2022/02/26 05:44:25;;;;;;;4.00;1.08;;;;;;;;;;5060433;28;20461;-59
2022/02/26 05:46:51;;;;;;;2.83;0.52;;;;;;;;;;5067795;28;20385;-59
2022/02/26 05:49:16;;;;;;;3.03;0.43;;;;;;;;;;5062567;28;20286;-59
2022/02/26 05:51:41;;;;;;;5.45;1.02;;;;;;;;;;5064762;28;20552;-59
2022/02/26 05:54:07;;;;;;;3.15;0.45;;;;;;;;;;5048667;28;20024;-59
2022/02/26 05:56:32;;;;;;;1.88;0.20;;;;;;;;;;5052915;28;20041;-55
2022/02/26 05:58:57;;;;;;;2.60;0.50;;;;;;;;;;5051162;28;20028;-59
2022/02/26 06:01:22;;;;;;;3.88;0.65;;;;;;;;;;5049538;28;20041;-58
2022/02/26 06:03:48;;;;;;;4.07;0.30;;;;;;;;;;5031512;28;20128;-59
2022/02/26 06:06:13;;;;;;;1.15;0.20;;;;;;;;;;5063535;28;20047;-58
2022/02/26 06:08:38;;;;;;;1.23;0.43;;;;;;;;;;5058848;28;20104;-59
2022/02/26 06:11:03;;;;;;;2.03;0.32;;;;;;;;;;5070015;28;20032;-59
2022/02/26 06:13:28;;;;;;;2.40;0.30;;;;;;;;;;5071797;28;20437;-59
2022/02/26 06:15:54;;;;;;;4.05;0.40;;;;;;;;;;5062189;28;20532;-59
2022/02/26 06:18:19;;;;;;;1.27;0.40;;;;;;;;;;5052128;28;20408;-59
2022/02/26 06:20:44;;;;;;;1.17;0.43;;;;;;;;;;5056141;28;20020;-59
2022/02/26 06:23:09;;;;;;;2.28;0.50;;;;;;;;;;5045268;28;20025;-59
2022/02/26 06:25:35;;;;;;;3.08;0.52;;;;;;;;;;5039903;28;20474;-59
2022/02/26 06:28:00;;;;;;;2.30;0.30;;;;;;;;;;5044820;28;20024;-59
2022/02/26 06:30:28;;;;;;;4.97;0.93;;;;;;;;;;5051947;28;20543;-59
2022/02/26 06:32:54;;;;;;;2.17;0.65;;;;;;;;;;5055942;28;20025;-59
2022/02/26 06:35:19;;;;;;;1.85;0.30;;;;;;;;;;5051944;28;20499;-58
2022/02/26 06:37:44;;;;;;;1.95;0.45;;;;;;;;;;5071118;28;20095;-59
2022/02/26 06:40:10;;;;;;;1.73;0.40;;;;;;;;;;5032314;28;20063;-58
2022/02/26 06:42:35;;;;;;;3.78;0.60;;;;;;;;;;5056577;28;20031;-59
2022/02/26 06:45:00;;;;;;;2.35;0.55;;;;;;;;;;5024410;28;20052;-59
2022/02/26 06:47:25;;;;;;;6.10;0.80;;;;;;;;;;5050924;28;20029;-58
2022/02/26 06:49:50;;;;;;;2.63;0.45;;;;;;;;;;5051058;28;20029;-59
2022/02/26 06:52:16;;;;;;;1.38;0.40;;;;;;;;;;5053445;28;20031;-59
2022/02/26 06:54:41;;;;;;;4.25;0.50;;;;;;;;;;5044835;28;20021;-59
2022/02/26 06:57:06;;;;;;;4.45;0.60;;;;;;;;;;5049980;28;20029;-59
2022/02/26 06:59:32;;;;;;;2.80;0.60;;;;;;;;;;5065807;28;20048;-59
2022/02/26 07:01:57;;;;;;;2.70;0.50;;;;;;;;;;5043913;28;20041;-60
2022/02/26 07:04:22;;;;;;;3.25;0.70;;;;;;;;;;5033414;28;20036;-59
2022/02/26 07:06:48;;;;;;;2.13;0.50;;;;;;;;;;5026606;28;20272;-59
2022/02/26 07:09:14;;;;;;;4.25;0.75;;;;;;;;;;5050035;28;20108;-59
2022/02/26 07:11:40;;;;;;;2.45;0.30;;;;;;;;;;5025840;28;20112;-57
2022/02/26 07:14:05;;;;;;;5.60;0.63;;;;;;;;;;5029027;28;20022;-59
2022/02/26 07:16:30;;;;;;;2.50;0.43;;;;;;;;;;5035295;28;20032;-59
2022/02/26 07:18:56;;;;;;;2.72;0.60;;;;;;;;;;5036281;28;20044;-59
2022/02/26 07:21:21;;;;;;;2.15;0.40;;;;;;;;;;5047115;28;20029;-59
2022/02/26 07:23:46;;;;;;;1.00;0.28;;;;;;;;;;5031950;28;20075;-59
2022/02/26 07:26:11;;;;;;;2.78;0.50;;;;;;;;;;5023212;28;20489;-59
2022/02/26 07:28:36;;;;;;;3.45;0.90;;;;;;;;;;5025739;28;20060;-59
2022/02/26 07:31:02;;;;;;;3.90;0.85;;;;;;;;;;5040117;28;20040;-59
2022/02/26 07:33:27;;;;;;;3.50;0.75;;;;;;;;;;5033761;28;20485;-59
2022/02/26 07:35:52;;;;;;;4.50;1.73;;;;;;;;;;5029815;28;20108;-59
2022/02/26 07:38:17;;;;;;;2.47;0.52;;;;;;;;;;5035796;28;20368;-59
2022/02/26 07:40:43;;;;;;;3.75;0.50;;;;;;;;;;5039849;28;20500;-59
2022/02/26 07:43:09;;;;;;;3.78;0.52;;;;;;;;;;5038791;28;20018;-59
2022/02/26 07:45:34;;;;;;;4.25;0.77;;;;;;;;;;5033380;28;20554;-59
2022/02/26 07:47:59;;;;;;;4.15;0.82;;;;;;;;;;5033313;28;20033;-55
2022/02/26 07:50:24;;;;;;;2.58;0.73;;;;;;;;;;5032959;28;20033;-59
2022/02/26 07:52:50;;;;;;;4.07;0.95;;;;;;;;;;5031791;28;20025;-59
2022/02/26 07:55:15;;;;;;;4.53;1.05;;;;;;;;;;5024409;28;20018;-59
2022/02/26 07:57:40;;;;;;;4.43;0.80;;;;;;;;;;5036755;28;20030;-69
2022/02/26 08:00:06;;;;;;;5.65;0.57;;;;;;;;;;5053117;28;20017;-58
2022/02/26 08:02:31;;;;;;;13.10;1.35;;;;;;;;;;5042368;28;20046;-51
2022/02/26 08:04:56;;;;;;;6.32;1.20;;;;;;;;;;5049360;28;20033;-54
2022/02/26 08:07:21;;;;;;;3.83;0.32;;;;;;;;;;5045363;28;20104;-55
2022/02/26 08:09:46;;;;;;;6.15;0.80;;;;;;;;;;5048757;28;20031;-53
2022/02/26 08:12:12;;;;;;;3.75;0.70;;;;;;;;;;5044035;28;20115;-50
2022/02/26 08:14:38;;;;;;;6.25;0.47;;;;;;;;;;5049633;28;20029;-52
2022/02/26 08:17:03;;;;;;;6.25;1.08;;;;;;;;;;5035717;28;20466;-53
2022/02/26 08:19:28;;;;;;;4.68;0.77;;;;;;;;;;5048005;28;20071;-53
2022/02/26 08:21:54;;;;;;;3.25;0.45;;;;;;;;;;5030840;28;20021;-55
2022/02/26 08:24:19;;;;;;;2.77;0.50;;;;;;;;;;5047127;28;20039;-51
2022/02/26 08:26:45;;;;;;;4.55;0.60;;;;;;;;;;5048994;28;20279;-56
2022/02/26 08:29:10;;;;;;;4.35;0.40;;;;;;;;;;5049787;28;20025;-54
2022/02/26 08:31:35;;;;;;;2.53;0.47;;;;;;;;;;5047599;28;20017;-53
2022/02/26 08:34:00;;;;;;;3.75;0.45;;;;;;;;;;5064298;28;20577;-49
2022/02/26 08:36:26;;;;;;;2.92;0.80;;;;;;;;;;5050333;28;20040;-52
2022/02/26 08:38:51;;;;;;;4.30;0.60;;;;;;;;;;5045341;28;20111;-52
2022/02/26 08:41:17;;;;;;;2.33;0.43;;;;;;;;;;5050282;28;20037;-54
2022/02/26 08:43:43;;;;;;;2.28;0.60;;;;;;;;;;5050697;28;20021;-56
2022/02/26 08:46:08;;;;;;;1.73;0.32;;;;;;;;;;5058658;28;20032;-52
2022/02/26 08:48:33;;;;;;;3.40;0.60;;;;;;;;;;5055971;28;20032;-52
2022/02/26 08:50:59;;;;;;;2.60;0.50;;;;;;;;;;5052170;28;20040;-51
2022/02/26 08:53:24;;;;;;;6.13;0.80;;;;;;;;;;5045418;28;20025;-52
2022/02/26 08:55:49;;;;;;;5.55;0.57;;;;;;;;;;5062162;28;20075;-58
2022/02/26 08:58:14;;;;;;;4.97;0.63;;;;;;;;;;5041672;28;20030;-59
2022/02/26 09:00:40;;;;;;;4.13;1.08;;;;;;;;;;5038867;28;20071;-54
2022/02/26 09:03:05;;;;;;;3.15;0.65;;;;;;;;;;5049387;28;20080;-55
2022/02/26 09:05:30;;;;;;;4.45;0.50;;;;;;;;;;5052166;28;20024;-53
2022/02/26 09:07:55;;;;;;;2.15;0.50;;;;;;;;;;5051605;28;20021;-57
2022/02/26 09:10:20;;;;;;;5.88;0.73;;;;;;;;;;5046923;28;20048;-48
2022/02/26 09:12:46;;;;;;;4.18;0.63;;;;;;;;;;5032842;28;20036;-52
2022/02/26 09:15:11;;;;;;;2.85;0.65;;;;;;;;;;5031853;28;20389;-51
2022/02/26 09:17:36;;;;;;;5.50;0.73;;;;;;;;;;5035703;28;20021;-50
2022/02/26 09:20:02;;;;;;;5.22;1.15;;;;;;;;;;5048934;28;20466;-55
2022/02/26 09:22:27;;;;;;;3.65;1.15;;;;;;;;;;5049193;28;20025;-57
2022/02/26 09:24:52;;;;;;;2.88;0.70;;;;;;;;;;5031089;28;20017;-48
2022/02/26 09:27:17;;;;;;;4.50;0.87;;;;;;;;;;5032098;28;20022;-52
2022/02/26 09:29:43;;;;;;;5.78;0.75;;;;;;;;;;5031921;28;20256;-52
2022/02/26 09:32:08;;;;;;;7.40;1.02;;;;;;;;;;5042025;28;20052;-49
2022/02/26 09:34:34;;;;;;;1.83;0.63;;;;;;;;;;5051231;28;20025;-51
2022/02/26 09:36:59;;;;;;;4.40;0.45;;;;;;;;;;5050693;28;20082;-56
2022/02/26 09:39:24;;;;;;;4.57;0.52;;;;;;;;;;5032000;28;20550;-49
2022/02/26 09:41:50;;;;;;;4.20;0.88;;;;;;;;;;5048733;28;20056;-58
2022/02/26 09:44:16;;;;;;;2.83;0.90;;;;;;;;;;5051166;28;20025;-59
2022/02/26 09:46:41;;;;;;;4.75;0.77;;;;;;;;;;5050749;28;20090;-49
2022/02/26 09:49:07;;;;;;;5.85;0.70;;;;;;;;;;5050957;28;20100;-52
2022/02/26 09:51:33;;;;;;;4.10;0.55;;;;;;;;;;5049885;28;20500;-48
2022/02/26 09:53:59;;;;;;;2.25;0.75;;;;;;;;;;5044378;28;20359;-54
2022/02/26 09:56:24;;;;;;;3.55;0.50;;;;;;;;;;5039971;28;20025;-47
2022/02/26 09:58:50;;;;;;;4.82;1.17;;;;;;;;;;5061595;28;20013;-50
2022/02/26 10:01:16;;;;;;;5.13;0.70;;;;;;;;;;5042574;28;20028;-57
2022/02/26 10:03:41;;;;;;;3.25;0.60;;;;;;;;;;5044863;28;20370;-49
2022/02/26 10:06:11;;;;;;;4.63;0.73;;;;;;;;;;5051863;28;20593;-54
2022/02/26 10:08:38;;;;;;;3.40;0.65;;;;;;;;;;5050090;28;20299;-59
2022/02/26 10:11:03;;;;;;;3.45;0.90;;;;;;;;;;5039308;28;20033;-53
2022/02/26 10:13:34;;;;;;;4.80;0.60;;;;;;;;;;5031777;28;20032;-50
2022/02/26 10:15:59;;;;;;;5.38;0.93;;;;;;;;;;5031830;28;20034;-55
2022/02/26 10:18:24;;;;;;;2.72;0.35;;;;;;;;;;5043621;28;20029;-56
2022/02/26 10:20:54;;;;;;;3.35;0.43;;;;;;;;;;5046057;28;20098;-48
2022/02/26 10:23:20;;;;;;;4.72;0.75;;;;;;;;;;5048145;28;20021;-49
2022/02/26 10:25:45;;;;;;;4.22;0.90;;;;;;;;;;5032028;28;20116;-51
2022/02/26 10:28:11;;;;;;;4.88;0.90;;;;;;;;;;5039232;28;20029;-50
2022/02/26 10:30:38;;;;;;;3.17;0.80;;;;;;;;;;5051288;28;20025;-51
2022/02/26 10:33:03;;;;;;;2.67;0.60;;;;;;;;;;5051670;28;20059;-51
2022/02/26 10:35:35;;;;;;;1.65;0.40;;;;;;;;;;5074598;28;20048;-48
2022/02/26 10:38:14;;;;;;;2.88;1.05;;;;;;;;;;5074316;28;20484;-51
2022/02/26 10:40:46;;;;;;;4.68;0.77;;;;;;;;;;5046052;28;20032;-52
2022/02/26 10:43:12;;;;;;;4.68;0.93;;;;;;;;;;5056660;28;20013;-52
2022/02/26 10:45:37;;;;;;;3.58;0.60;;;;;;;;;;5055450;28;20033;-48
2022/02/26 10:48:02;;;;;;;1.90;0.38;;;;;;;;;;5072702;28;20437;-51
2022/02/26 10:50:27;;;;;;;2.88;0.63;;;;;;;;;;5069150;28;20017;-51
2022/02/26 10:52:56;;;;;;;2.72;0.55;;;;;;;;;;5050923;28;20028;-56
2022/02/26 10:55:21;;;;;;;4.13;0.68;;;;;;;;;;5058006;28;20017;-50
2022/02/26 10:57:46;;;;;;;3.05;0.82;;;;;;;;;;5049970;28;20032;-50
2022/02/26 11:00:12;;;;;;;3.23;0.60;;;;;;;;;;5052574;28;20021;-52
2022/02/26 11:02:37;;;;;;;2.13;0.68;;;;;;;;;;5057232;28;20349;-51
2022/02/26 11:05:03;;;;;;;2.75;0.60;;;;;;;;;;5048662;28;20037;-52
2022/02/26 11:07:30;;;;;;;4.10;0.77;;;;;;;;;;5061323;28;20024;-51
2022/02/26 11:09:55;;;;;;;2.95;0.60;;;;;;;;;;5056119;28;20543;-51
2022/02/26 11:12:24;;;;;;;2.55;0.60;;;;;;;;;;5051730;28;20029;-49
2022/02/26 11:14:59;;;;;;;3.50;0.43;;;;;;;;;;5054505;28;20029;-47
2022/02/26 11:17:25;;;;;;;4.13;0.88;;;;;;;;;;5063801;28;20101;-50
2022/02/26 11:19:53;;;;;;;3.55;0.43;;;;;;;;;;5072008;28;20048;-48
2022/02/26 11:22:21;;;;;;;2.15;0.40;;;;;;;;;;5056072;28;20367;-49
2022/02/26 11:24:47;;;;;;;1.55;0.35;;;;;;;;;;5050036;28;20075;-49
2022/02/26 11:27:13;;;;;;;1.33;0.60;;;;;;;;;;5062173;28;20032;-51
2022/02/26 11:29:40;;;;;;;4.80;1.00;;;;;;;;;;5053971;28;20412;-51
2022/02/26 11:32:07;;;;;;;6.28;1.77;;;;;;;;;;5052642;28;20576;-50
2022/02/26 11:34:34;;;;;;;4.03;1.23;;;;;;;;;;5053329;28;20025;-50
2022/02/26 11:36:59;;;;;;;3.15;0.60;;;;;;;;;;5044291;28;20020;-52
2022/02/26 11:39:33;;;;;;;3.67;0.50;;;;;;;;;;5042234;28;20380;-52
2022/02/26 11:42:13;;;;;;;4.00;0.50;;;;;;;;;;5054421;28;20825;-51
2022/02/26 11:44:39;;;;;;;3.92;0.90;;;;;;;;;;5048049;28;20025;-49
2022/02/26 11:47:16;;;;;;;5.07;1.60;;;;;;;;;;5053903;28;20474;-50
2022/02/26 11:49:54;;;;;;;3.28;0.65;;;;;;;;;;5065951;28;20024;-51
2022/02/26 11:52:34;;;;;;;2.00;0.30;;;;;;;;;;5052567;28;20025;-50
2022/02/26 11:54:59;;;;;;;3.63;0.68;;;;;;;;;;5053223;28;20025;-50
2022/02/26 11:57:24;;;;;;;4.80;0.67;;;;;;;;;;5051499;28;20488;-50
2022/02/26 11:59:50;;;;;;;4.40;0.85;;;;;;;;;;5067221;28;20290;-52
2022/02/26 12:02:16;;;;;;;1.52;0.40;;;;;;;;;;5061926;28;20053;-50
2022/02/26 12:04:41;;;;;;;4.13;0.70;;;;;;;;;;5056131;28;20021;-51
2022/02/26 12:07:07;;;;;;;2.45;0.75;;;;;;;;;;5053989;28;20037;-52
2022/02/26 12:09:52;;;;;;;3.10;0.47;;;;;;;;;;5055017;28;20585;-55
2022/02/26 12:12:34;;;;;;;5.22;1.20;;;;;;;;;;5050094;28;20040;-54
2022/02/26 12:14:59;;;;;;;3.72;0.50;;;;;;;;;;5052561;28;20060;-51
2022/02/26 12:17:24;;;;;;;1.67;0.35;;;;;;;;;;5052795;28;20056;-49
2022/02/26 12:19:52;;;;;;;1.90;0.32;;;;;;;;;;5064112;28;20036;-50
2022/02/26 12:22:17;;;;;;;2.95;0.50;;;;;;;;;;5053067;28;20103;-49
2022/02/26 12:24:48;;;;;;;2.00;0.30;;;;;;;;;;5056120;28;20150;-54
2022/02/26 12:27:14;;;;;;;2.67;0.60;;;;;;;;;;5069882;28;20366;-54
2022/02/26 12:29:39;;;;;;;3.47;0.60;;;;;;;;;;5070357;28;20123;-50
2022/02/26 12:32:14;;;;;;;1.73;0.30;;;;;;;;;;5066898;28;20378;-51
2022/02/26 12:34:40;;;;;;;2.58;0.57;;;;;;;;;;5070572;28;20020;-52
2022/02/26 12:37:09;;;;;;;1.92;0.38;;;;;;;;;;5052540;28;20017;-49
2022/02/26 12:39:38;;;;;;;2.03;0.52;;;;;;;;;;5053155;28;20024;-49
2022/02/26 12:42:04;;;;;;;1.90;0.40;;;;;;;;;;5054033;28;20017;-49
2022/02/26 12:44:29;;;;;;;0.88;0.47;;;;;;;;;;5052646;28;20024;-49
2022/02/26 12:46:55;;;;;;;2.33;0.57;;;;;;;;;;5055077;28;20541;-52
2022/02/26 12:49:22;;;;;;;2.28;0.65;;;;;;;;;;5051198;28;20025;-51
2022/02/26 12:51:48;;;;;;;2.78;0.55;;;;;;;;;;5053519;28;20052;-53
2022/02/26 12:54:13;;;;;;;2.35;0.40;;;;;;;;;;5045320;28;20021;-48
2022/02/26 12:56:39;;;;;;;2.15;0.30;;;;;;;;;;5058738;28;20082;-52
2022/02/26 12:59:12;;;;;;;1.95;0.40;;;;;;;;;;5046572;28;20021;-51
2022/02/26 13:01:45;;;;;;;2.72;0.50;;;;;;;;;;5055364;28;20024;-51
2022/02/26 13:04:18;;;;;;;2.35;0.40;;;;;;;;;;5054142;28;20477;-52
2022/02/26 13:06:51;;;;;;;3.80;0.40;;;;;;;;;;5056938;28;20100;-51
2022/02/26 13:09:16;;;;;;;3.83;0.60;;;;;;;;;;5052415;28;20021;-49
2022/02/26 13:11:48;;;;;;;2.22;0.30;;;;;;;;;;5053825;28;20108;-51
2022/02/26 13:14:15;;;;;;;3.83;0.50;;;;;;;;;;5052398;28;20056;-50
2022/02/26 13:16:42;;;;;;;1.90;0.40;;;;;;;;;;5046415;28;20041;-48
2022/02/26 13:19:08;;;;;;;1.38;0.30;;;;;;;;;;5050947;28;20017;-52
2022/02/26 13:21:39;;;;;;;2.58;0.30;;;;;;;;;;5062415;28;20016;-50
2022/02/26 13:24:05;;;;;;;1.90;0.50;;;;;;;;;;5044671;28;20045;-52
2022/02/26 13:26:32;;;;;;;0.90;0.20;;;;;;;;;;5055997;28;20020;-52
2022/02/26 13:28:57;;;;;;;1.85;0.40;;;;;;;;;;5054377;28;20036;-54
2022/02/26 13:31:31;;;;;;;2.15;0.50;;;;;;;;;;5040182;28;20024;-54
2022/02/26 13:34:28;;;;;;;2.75;0.30;;;;;;;;;;5046599;28;20474;-52
2022/02/26 13:36:54;;;;;;;2.42;0.38;;;;;;;;;;5001128;28;20045;-51
2022/02/26 13:39:20;;;;;;;3.97;0.70;;;;;;;;;;5026649;28;20029;-52
2022/02/26 13:41:55;;;;;;;2.78;0.60;;;;;;;;;;5051106;28;20032;-52
2022/02/26 13:44:29;;;;;;;2.70;0.50;;;;;;;;;;5068089;28;20024;-53
2022/02/26 13:46:54;;;;;;;1.88;0.28;;;;;;;;;;5052366;28;20021;-52
2022/02/26 13:49:20;;;;;;;3.17;0.55;;;;;;;;;;5050490;28;20032;-53
2022/02/26 13:51:46;;;;;;;3.22;0.73;;;;;;;;;;5056012;28;20032;-49
2022/02/26 13:54:15;;;;;;;2.03;0.55;;;;;;;;;;5042576;28;20192;-51
2022/02/26 13:56:40;;;;;;;2.00;0.30;;;;;;;;;;5033545;28;20033;-49
2022/02/26 13:59:06;;;;;;;2.47;0.50;;;;;;;;;;5051030;28;20124;-55
2022/02/26 14:01:48;;;;;;;2.33;0.30;;;;;;;;;;5057325;28;20021;-49
2022/02/26 14:04:18;;;;;;;2.70;0.40;;;;;;;;;;5055367;28;20064;-50
2022/02/26 14:06:46;;;;;;;2.38;0.30;;;;;;;;;;5054844;28;20116;-50
2022/02/26 14:09:15;;;;;;;1.95;0.25;;;;;;;;;;5055120;28;20047;-49
2022/02/26 14:11:41;;;;;;;2.55;0.50;;;;;;;;;;5055863;28;20067;-50
2022/02/26 14:14:25;;;;;;;2.30;0.50;;;;;;;;;;5055664;28;20064;-51
2022/02/26 14:16:50;;;;;;;1.98;0.70;;;;;;;;;;5055696;28;20048;-50
2022/02/26 14:19:15;;;;;;;2.63;0.35;;;;;;;;;;5054106;28;20025;-48
2022/02/26 14:21:40;;;;;;;2.45;0.57;;;;;;;;;;5055630;28;20051;-51
2022/02/26 14:24:06;;;;;;;1.20;0.20;;;;;;;;;;5048974;28;20532;-49
2022/02/26 14:26:31;;;;;;;2.10;0.55;;;;;;;;;;5035475;28;20071;-49
2022/02/26 14:29:00;;;;;;;1.02;0.30;;;;;;;;;;5048584;28;20029;-52
2022/02/26 14:31:27;;;;;;;3.72;0.60;;;;;;;;;;5051871;28;20079;-51
2022/02/26 14:33:52;;;;;;;1.23;0.30;;;;;;;;;;5045805;28;20535;-50
2022/02/26 14:36:17;;;;;;;3.17;0.32;;;;;;;;;;5054777;28;20025;-50
2022/02/26 14:38:42;;;;;;;1.23;0.20;;;;;;;;;;5037151;28;20024;-50